sensor_id;sensor_type;location;lat;lon;timestamp;pressure;altitude;pressure_sealevel;temperature;humidity
64616;BME280;51027;42.162;24.754;2022-11-03T00:02:16;100043.63;;;17.74;40.33
64616;BME280;51027;42.162;24.754;2022-11-03T00:04:42;100044.56;;;17.88;39.98
64616;BME280;51027;42.162;24.754;2022-11-03T00:07:08;100050.09;;;17.99;40.05
64616;BME280;51027;42.162;24.754;2022-11-03T00:09:34;100042.28;;;17.96;39.85
64616;BME280;51027;42.162;24.754;2022-11-03T00:12:00;100035.00;;;18.12;39.34
64616;BME280;51027;42.162;24.754;2022-11-03T00:14:26;100049.91;;;18.29;39.54
64616;BME280;51027;42.162;24.754;2022-11-03T00:16:52;100049.00;;;18.42;38.66
64616;BME280;51027;42.162;24.754;2022-11-03T00:19:19;100055.84;;;18.47;38.61
64616;BME280;51027;42.162;24.754;2022-11-03T00:21:44;100046.94;;;18.60;38.00
64616;BME280;51027;42.162;24.754;2022-11-03T00:24:11;100050.41;;;18.75;38.16
64616;BME280;51027;42.162;24.754;2022-11-03T00:26:37;100055.25;;;18.83;37.84
64616;BME280;51027;42.162;24.754;2022-11-03T00:29:08;100065.59;;;18.87;37.54
64616;BME280;51027;42.162;24.754;2022-11-03T00:31:35;100053.22;;;18.86;37.90
64616;BME280;51027;42.162;24.754;2022-11-03T00:34:01;100050.66;;;18.85;37.85
64616;BME280;51027;42.162;24.754;2022-11-03T00:36:29;100019.31;;;18.61;37.64
64616;BME280;51027;42.162;24.754;2022-11-03T00:38:56;100047.34;;;18.81;37.44
64616;BME280;51027;42.162;24.754;2022-11-03T00:41:23;100053.53;;;18.82;37.76
64616;BME280;51027;42.162;24.754;2022-11-03T00:43:49;100047.97;;;18.85;37.60
64616;BME280;51027;42.162;24.754;2022-11-03T00:46:15;100054.56;;;18.79;37.54
64616;BME280;51027;42.162;24.754;2022-11-03T00:48:41;100053.19;;;18.74;37.71
64616;BME280;51027;42.162;24.754;2022-11-03T00:51:18;100050.53;;;18.74;37.38
64616;BME280;51027;42.162;24.754;2022-11-03T00:56:19;100046.53;;;18.66;37.96
64616;BME280;51027;42.162;24.754;2022-11-03T00:58:45;100047.78;;;18.61;37.70
64616;BME280;51027;42.162;24.754;2022-11-03T01:01:13;100045.97;;;18.61;37.69
64616;BME280;51027;42.162;24.754;2022-11-03T01:03:40;100046.59;;;18.52;38.01
64616;BME280;51027;42.162;24.754;2022-11-03T01:06:08;100044.09;;;18.49;38.00
64616;BME280;51027;42.162;24.754;2022-11-03T01:08:53;100039.94;;;18.45;37.97
64616;BME280;51027;42.162;24.754;2022-11-03T01:11:22;100043.19;;;18.50;37.89
64616;BME280;51027;42.162;24.754;2022-11-03T01:14:06;100043.81;;;18.54;38.09
64616;BME280;51027;42.162;24.754;2022-11-03T01:16:32;100042.63;;;18.58;37.84
64616;BME280;51027;42.162;24.754;2022-11-03T01:18:58;100044.28;;;18.60;37.96
64616;BME280;51027;42.162;24.754;2022-11-03T01:21:24;100041.00;;;18.69;37.30
64616;BME280;51027;42.162;24.754;2022-11-03T01:23:50;100041.31;;;18.65;37.43
64616;BME280;51027;42.162;24.754;2022-11-03T01:26:15;100039.50;;;18.65;37.77
64616;BME280;51027;42.162;24.754;2022-11-03T01:28:45;100043.03;;;18.66;37.51
64616;BME280;51027;42.162;24.754;2022-11-03T01:31:22;100030.16;;;18.58;37.35
64616;BME280;51027;42.162;24.754;2022-11-03T01:33:49;100041.59;;;18.60;37.57
64616;BME280;51027;42.162;24.754;2022-11-03T01:36:16;100026.38;;;18.48;37.96
64616;BME280;51027;42.162;24.754;2022-11-03T01:38:42;100041.25;;;18.52;37.95
64616;BME280;51027;42.162;24.754;2022-11-03T01:41:11;100041.59;;;18.60;37.42
64616;BME280;51027;42.162;24.754;2022-11-03T01:43:37;100048.16;;;18.69;37.20
64616;BME280;51027;42.162;24.754;2022-11-03T01:48:39;100041.31;;;18.65;37.44
64616;BME280;51027;42.162;24.754;2022-11-03T01:51:08;100040.34;;;18.66;37.03
64616;BME280;51027;42.162;24.754;2022-11-03T01:53:36;100038.38;;;18.55;37.69
64616;BME280;51027;42.162;24.754;2022-11-03T01:56:07;100047.69;;;18.62;37.69
64616;BME280;51027;42.162;24.754;2022-11-03T01:58:37;100050.19;;;18.65;37.58
64616;BME280;51027;42.162;24.754;2022-11-03T02:01:03;100041.25;;;18.52;37.73
64616;BME280;51027;42.162;24.754;2022-11-03T02:03:34;100045.19;;;18.59;37.75
64616;BME280;51027;42.162;24.754;2022-11-03T02:06:01;100054.47;;;18.54;37.82
64616;BME280;51027;42.162;24.754;2022-11-03T02:08:37;100034.59;;;18.45;37.60
64616;BME280;51027;42.162;24.754;2022-11-03T02:11:04;100058.97;;;18.53;37.80
64616;BME280;51027;42.162;24.754;2022-11-03T02:13:50;100047.22;;;18.56;37.73
64616;BME280;51027;42.162;24.754;2022-11-03T02:16:16;100049.53;;;18.48;37.61
64616;BME280;51027;42.162;24.754;2022-11-03T02:18:43;100055.22;;;18.56;37.40
64616;BME280;51027;42.162;24.754;2022-11-03T02:21:26;100047.44;;;18.53;37.70
64616;BME280;51027;42.162;24.754;2022-11-03T02:26:31;100041.84;;;18.43;37.67
64616;BME280;51027;42.162;24.754;2022-11-03T02:28:56;100053.38;;;18.43;37.45
64616;BME280;51027;42.162;24.754;2022-11-03T02:31:37;100052.53;;;18.43;37.77
64616;BME280;51027;42.162;24.754;2022-11-03T02:34:09;100051.97;;;18.38;37.49
64616;BME280;51027;42.162;24.754;2022-11-03T02:37:07;100057.72;;;18.32;37.80
64616;BME280;51027;42.162;24.754;2022-11-03T02:39:45;100047.53;;;18.24;38.15
64616;BME280;51027;42.162;24.754;2022-11-03T02:42:13;100065.59;;;18.33;38.22
64616;BME280;51027;42.162;24.754;2022-11-03T02:44:41;100059.31;;;18.34;37.71
64616;BME280;51027;42.162;24.754;2022-11-03T02:47:09;100062.25;;;18.44;37.93
64616;BME280;51027;42.162;24.754;2022-11-03T02:49:53;100053.91;;;18.49;37.55
64616;BME280;51027;42.162;24.754;2022-11-03T02:58:30;100064.94;;;18.57;36.89
64616;BME280;51027;42.162;24.754;2022-11-03T03:03:37;100058.75;;;18.56;37.29
64616;BME280;51027;42.162;24.754;2022-11-03T03:06:09;100057.25;;;18.52;37.34
64616;BME280;51027;42.162;24.754;2022-11-03T03:08:40;100058.50;;;18.47;37.37
64616;BME280;51027;42.162;24.754;2022-11-03T03:11:10;100053.38;;;18.43;37.15
64616;BME280;51027;42.162;24.754;2022-11-03T03:13:36;100047.47;;;18.38;37.46
64616;BME280;51027;42.162;24.754;2022-11-03T03:16:35;100058.94;;;18.40;37.35
64616;BME280;51027;42.162;24.754;2022-11-03T03:19:46;100056.25;;;18.40;37.15
64616;BME280;51027;42.162;24.754;2022-11-03T03:22:35;100060.91;;;18.37;37.34
64616;BME280;51027;42.162;24.754;2022-11-03T03:25:33;100070.84;;;18.35;37.69
64616;BME280;51027;42.162;24.754;2022-11-03T03:28:35;100076.56;;;18.29;38.00
64616;BME280;51027;42.162;24.754;2022-11-03T03:31:00;100051.56;;;18.17;37.74
64616;BME280;51027;42.162;24.754;2022-11-03T03:33:30;100080.66;;;18.34;37.56
64616;BME280;51027;42.162;24.754;2022-11-03T03:35:58;100077.50;;;18.28;37.74
64616;BME280;51027;42.162;24.754;2022-11-03T03:38:28;100076.38;;;18.32;37.46
64616;BME280;51027;42.162;24.754;2022-11-03T03:40:54;100072.19;;;18.28;37.86
64616;BME280;51027;42.162;24.754;2022-11-03T03:43:22;100077.22;;;18.32;37.76
64616;BME280;51027;42.162;24.754;2022-11-03T03:45:51;100057.81;;;18.30;37.86
64616;BME280;51027;42.162;24.754;2022-11-03T03:48:18;100072.13;;;18.29;38.04
64616;BME280;51027;42.162;24.754;2022-11-03T03:50:45;100066.97;;;18.26;38.65
64616;BME280;51027;42.162;24.754;2022-11-03T03:53:12;100070.38;;;18.28;38.31
64616;BME280;51027;42.162;24.754;2022-11-03T03:55:49;100068.38;;;18.32;38.21
64616;BME280;51027;42.162;24.754;2022-11-03T03:58:15;100073.63;;;18.33;38.54
64616;BME280;51027;42.162;24.754;2022-11-03T04:00:41;100064.00;;;18.31;38.51
64616;BME280;51027;42.162;24.754;2022-11-03T04:03:18;100072.13;;;18.29;38.27
64616;BME280;51027;42.162;24.754;2022-11-03T04:05:44;100071.22;;;18.29;38.39
64616;BME280;51027;42.162;24.754;2022-11-03T04:08:11;100075.91;;;18.25;38.22
64616;BME280;51027;42.162;24.754;2022-11-03T04:10:37;100049.19;;;18.12;38.14
64616;BME280;51027;42.162;24.754;2022-11-03T04:13:03;100076.66;;;18.27;37.75
64616;BME280;51027;42.162;24.754;2022-11-03T04:15:47;100056.44;;;18.10;37.89
64616;BME280;51027;42.162;24.754;2022-11-03T04:18:31;100084.13;;;18.22;37.56
64616;BME280;51027;42.162;24.754;2022-11-03T04:21:15;100088.59;;;18.22;37.67
64616;BME280;51027;42.162;24.754;2022-11-03T04:23:59;100083.91;;;18.25;37.79
64616;BME280;51027;42.162;24.754;2022-11-03T04:26:26;100076.97;;;18.23;37.69
64616;BME280;51027;42.162;24.754;2022-11-03T04:28:52;100073.56;;;18.21;37.64
64616;BME280;51027;42.162;24.754;2022-11-03T04:31:19;100079.16;;;18.30;37.64
64616;BME280;51027;42.162;24.754;2022-11-03T04:33:45;100077.50;;;18.42;38.06
64616;BME280;51027;42.162;24.754;2022-11-03T04:36:21;100071.00;;;18.46;37.93
64616;BME280;51027;42.162;24.754;2022-11-03T04:38:48;100047.22;;;18.29;37.31
64616;BME280;51027;42.162;24.754;2022-11-03T04:41:20;100069.38;;;18.43;37.55
64616;BME280;51027;42.162;24.754;2022-11-03T04:43:46;100075.56;;;18.44;37.34
64616;BME280;51027;42.162;24.754;2022-11-03T04:46:14;100069.59;;;18.40;37.03
64616;BME280;51027;42.162;24.754;2022-11-03T04:48:42;100076.91;;;18.37;37.35
64616;BME280;51027;42.162;24.754;2022-11-03T04:51:16;100075.31;;;18.34;37.54
64616;BME280;51027;42.162;24.754;2022-11-03T04:54:17;100082.47;;;18.34;37.55
64616;BME280;51027;42.162;24.754;2022-11-03T04:56:43;100090.00;;;18.27;37.80
64616;BME280;51027;42.162;24.754;2022-11-03T04:59:13;100093.44;;;18.29;37.28
64616;BME280;51027;42.162;24.754;2022-11-03T05:01:39;100093.94;;;18.22;38.00
64616;BME280;51027;42.162;24.754;2022-11-03T05:04:12;100095.91;;;18.18;37.64
64616;BME280;51027;42.162;24.754;2022-11-03T05:06:37;100090.78;;;18.15;37.78
64616;BME280;51027;42.162;24.754;2022-11-03T05:09:27;100100.59;;;18.14;38.19
64616;BME280;51027;42.162;24.754;2022-11-03T05:11:53;100081.38;;;18.09;38.12
64616;BME280;51027;42.162;24.754;2022-11-03T05:14:21;100102.78;;;18.22;37.97
64616;BME280;51027;42.162;24.754;2022-11-03T05:16:48;100106.84;;;18.28;37.85
64616;BME280;51027;42.162;24.754;2022-11-03T05:19:18;100105.25;;;18.25;38.01
64616;BME280;51027;42.162;24.754;2022-11-03T05:21:45;100099.47;;;18.19;38.05
64616;BME280;51027;42.162;24.754;2022-11-03T05:24:14;100112.88;;;18.31;38.16
64616;BME280;51027;42.162;24.754;2022-11-03T05:26:41;100117.88;;;18.36;37.90
64616;BME280;51027;42.162;24.754;2022-11-03T05:29:14;100118.63;;;18.38;37.51
64616;BME280;51027;42.162;24.754;2022-11-03T05:31:41;100128.56;;;18.36;37.87
64616;BME280;51027;42.162;24.754;2022-11-03T05:34:43;100126.34;;;18.42;37.70
64616;BME280;51027;42.162;24.754;2022-11-03T05:39:37;100129.03;;;18.42;38.14
64616;BME280;51027;42.162;24.754;2022-11-03T05:42:25;100142.56;;;18.39;37.98
64616;BME280;51027;42.162;24.754;2022-11-03T05:44:53;100093.34;;;18.17;37.64
64616;BME280;51027;42.162;24.754;2022-11-03T05:47:24;100143.41;;;18.40;38.40
64616;BME280;51027;42.162;24.754;2022-11-03T05:49:55;100148.94;;;18.37;37.81
64616;BME280;51027;42.162;24.754;2022-11-03T05:52:25;100154.47;;;18.34;38.12
64616;BME280;51027;42.162;24.754;2022-11-03T05:54:52;100160.44;;;18.52;37.70
64616;BME280;51027;42.162;24.754;2022-11-03T05:57:20;100156.66;;;18.83;37.21
64616;BME280;51027;42.162;24.754;2022-11-03T05:59:46;100096.38;;;18.25;37.23
64616;BME280;51027;42.162;24.754;2022-11-03T06:02:34;100165.06;;;18.62;37.56
64616;BME280;51027;42.162;24.754;2022-11-03T06:05:01;100154.50;;;18.61;37.52
64616;BME280;51027;42.162;24.754;2022-11-03T06:07:29;100167.72;;;18.77;37.42
64616;BME280;51027;42.162;24.754;2022-11-03T06:09:57;100173.81;;;18.79;37.28
64616;BME280;51027;42.162;24.754;2022-11-03T06:12:24;100180.56;;;18.84;37.78
64616;BME280;51027;42.162;24.754;2022-11-03T06:14:50;100182.22;;;18.99;37.89
64616;BME280;51027;42.162;24.754;2022-11-03T06:17:24;100189.50;;;19.10;37.35
64616;BME280;51027;42.162;24.754;2022-11-03T06:19:57;100197.25;;;19.15;37.28
64616;BME280;51027;42.162;24.754;2022-11-03T06:22:34;100202.63;;;19.40;37.49
64616;BME280;51027;42.162;24.754;2022-11-03T06:27:37;100221.09;;;20.21;36.46
64616;BME280;51027;42.162;24.754;2022-11-03T06:30:23;100213.00;;;19.84;36.89
64616;BME280;51027;42.162;24.754;2022-11-03T06:32:49;100224.88;;;20.06;35.78
64616;BME280;51027;42.162;24.754;2022-11-03T06:35:15;100239.31;;;20.29;36.29
64616;BME280;51027;42.162;24.754;2022-11-03T06:37:41;100238.75;;;20.11;36.11
64616;BME280;51027;42.162;24.754;2022-11-03T06:42:36;100217.84;;;23.51;30.81
64616;BME280;51027;42.162;24.754;2022-11-03T06:45:16;100236.06;;;25.12;28.81
64616;BME280;51027;42.162;24.754;2022-11-03T06:47:43;100238.06;;;25.29;28.22
64616;BME280;51027;42.162;24.754;2022-11-03T06:50:23;100238.75;;;26.08;26.93
64616;BME280;51027;42.162;24.754;2022-11-03T06:52:49;100239.16;;;23.43;30.10
64616;BME280;51027;42.162;24.754;2022-11-03T06:55:26;100246.84;;;23.05;30.92
64616;BME280;51027;42.162;24.754;2022-11-03T06:57:56;100242.03;;;21.39;32.99
64616;BME280;51027;42.162;24.754;2022-11-03T07:00:27;100245.13;;;21.09;33.69
64616;BME280;51027;42.162;24.754;2022-11-03T07:03:13;100247.63;;;20.99;34.43
64616;BME280;51027;42.162;24.754;2022-11-03T07:05:40;100260.50;;;20.94;34.96
64616;BME280;51027;42.162;24.754;2022-11-03T07:08:24;100264.41;;;20.77;35.87
64616;BME280;51027;42.162;24.754;2022-11-03T07:11:05;100271.09;;;20.33;36.92
64616;BME280;51027;42.162;24.754;2022-11-03T07:13:35;100266.91;;;20.04;37.84
64616;BME280;51027;42.162;24.754;2022-11-03T07:16:01;100252.94;;;21.60;35.25
64616;BME280;51027;42.162;24.754;2022-11-03T07:18:34;100268.91;;;25.46;29.67
64616;BME280;51027;42.162;24.754;2022-11-03T07:21:05;100267.91;;;23.32;32.16
64616;BME280;51027;42.162;24.754;2022-11-03T07:23:31;100270.91;;;24.94;29.53
64616;BME280;51027;42.162;24.754;2022-11-03T07:25:59;100269.91;;;22.06;33.42
64616;BME280;51027;42.162;24.754;2022-11-03T07:28:30;100270.41;;;24.18;31.05
64616;BME280;51027;42.162;24.754;2022-11-03T07:31:00;100266.41;;;23.39;31.25
64616;BME280;51027;42.162;24.754;2022-11-03T07:33:28;100281.22;;;21.16;34.97
64616;BME280;51027;42.162;24.754;2022-11-03T07:35:56;100259.34;;;21.81;34.00
64616;BME280;51027;42.162;24.754;2022-11-03T07:38:23;100269.50;;;23.66;31.15
64616;BME280;51027;42.162;24.754;2022-11-03T07:40:50;100269.00;;;25.06;29.30
64616;BME280;51027;42.162;24.754;2022-11-03T07:43:19;100263.00;;;23.69;30.89
64616;BME280;51027;42.162;24.754;2022-11-03T07:45:54;100272.91;;;21.32;34.59
64616;BME280;51027;42.162;24.754;2022-11-03T07:51:23;100272.16;;;21.06;35.33
64616;BME280;51027;42.162;24.754;2022-11-03T07:53:52;100271.44;;;22.89;32.67
64616;BME280;51027;42.162;24.754;2022-11-03T07:56:21;100262.03;;;24.32;30.40
64616;BME280;51027;42.162;24.754;2022-11-03T07:58:50;100260.97;;;26.49;27.43
64616;BME280;51027;42.162;24.754;2022-11-03T08:01:30;100259.25;;;27.66;25.96
64616;BME280;51027;42.162;24.754;2022-11-03T08:04:07;100259.81;;;25.95;27.62
64616;BME280;51027;42.162;24.754;2022-11-03T08:06:34;100241.16;;;28.36;25.10
64616;BME280;51027;42.162;24.754;2022-11-03T08:08:59;100255.56;;;28.79;24.55
64616;BME280;51027;42.162;24.754;2022-11-03T08:11:25;100250.53;;;28.42;24.60
64616;BME280;51027;42.162;24.754;2022-11-03T08:13:51;100253.31;;;27.80;25.27
64616;BME280;51027;42.162;24.754;2022-11-03T08:16:17;100260.28;;;28.61;24.48
64616;BME280;51027;42.162;24.754;2022-11-03T08:18:43;100255.38;;;28.64;24.49
64616;BME280;51027;42.162;24.754;2022-11-03T08:21:09;100258.25;;;28.11;25.67
64616;BME280;51027;42.162;24.754;2022-11-03T08:23:34;100252.81;;;30.60;22.60
64616;BME280;51027;42.162;24.754;2022-11-03T08:26:00;100257.97;;;31.25;21.83
64616;BME280;51027;42.162;24.754;2022-11-03T08:28:25;100261.66;;;32.16;21.00
64616;BME280;51027;42.162;24.754;2022-11-03T08:30:51;100255.06;;;31.72;21.41
64616;BME280;51027;42.162;24.754;2022-11-03T08:33:17;100255.13;;;31.64;21.54
64616;BME280;51027;42.162;24.754;2022-11-03T08:35:43;100261.66;;;31.32;21.55
64616;BME280;51027;42.162;24.754;2022-11-03T08:38:08;100257.81;;;32.25;20.87
64616;BME280;51027;42.162;24.754;2022-11-03T08:40:34;100257.63;;;32.26;20.81
64616;BME280;51027;42.162;24.754;2022-11-03T08:42:59;100258.53;;;31.12;22.36
64616;BME280;51027;42.162;24.754;2022-11-03T08:45:28;100264.06;;;32.92;20.49
64616;BME280;51027;42.162;24.754;2022-11-03T08:47:54;100265.56;;;31.38;21.39
64616;BME280;51027;42.162;24.754;2022-11-03T08:50:20;100257.78;;;33.49;20.08
64616;BME280;51027;42.162;24.754;2022-11-03T08:52:45;100254.28;;;32.54;20.76
64616;BME280;51027;42.162;24.754;2022-11-03T08:55:11;100263.13;;;31.12;22.48
64616;BME280;51027;42.162;24.754;2022-11-03T08:57:36;100261.38;;;30.88;22.52
64616;BME280;51027;42.162;24.754;2022-11-03T09:00:03;100262.00;;;31.37;22.29
64616;BME280;51027;42.162;24.754;2022-11-03T09:02:30;100236.13;;;31.56;22.39
64616;BME280;51027;42.162;24.754;2022-11-03T09:04:55;100259.47;;;31.73;21.80
64616;BME280;51027;42.162;24.754;2022-11-03T09:07:21;100260.53;;;28.50;24.76
64616;BME280;51027;42.162;24.754;2022-11-03T09:09:46;100243.88;;;25.53;29.46
64616;BME280;51027;42.162;24.754;2022-11-03T09:12:12;100246.63;;;25.34;29.38
64616;BME280;51027;42.162;24.754;2022-11-03T09:14:38;100253.09;;;25.12;29.75
64616;BME280;51027;42.162;24.754;2022-11-03T09:17:03;100240.72;;;28.49;26.27
64616;BME280;51027;42.162;24.754;2022-11-03T09:19:28;100234.75;;;30.20;22.82
64616;BME280;51027;42.162;24.754;2022-11-03T09:21:54;100226.53;;;26.96;27.18
64616;BME280;51027;42.162;24.754;2022-11-03T09:24:19;100219.59;;;25.63;28.93
64616;BME280;51027;42.162;24.754;2022-11-03T09:26:45;100223.03;;;25.65;28.93
64616;BME280;51027;42.162;24.754;2022-11-03T09:29:10;100222.31;;;25.53;29.37
64616;BME280;51027;42.162;24.754;2022-11-03T09:31:35;100218.75;;;25.82;29.54
64616;BME280;51027;42.162;24.754;2022-11-03T09:34:01;100216.97;;;27.12;27.70
64616;BME280;51027;42.162;24.754;2022-11-03T09:36:26;100223.59;;;25.59;29.97
64616;BME280;51027;42.162;24.754;2022-11-03T09:38:52;100225.03;;;24.65;31.13
64616;BME280;51027;42.162;24.754;2022-11-03T09:41:17;100214.38;;;25.04;30.09
64616;BME280;51027;42.162;24.754;2022-11-03T09:43:44;100219.50;;;25.26;30.02
64616;BME280;51027;42.162;24.754;2022-11-03T09:46:10;100214.09;;;25.16;30.48
64616;BME280;51027;42.162;24.754;2022-11-03T09:48:36;100204.97;;;24.48;30.87
64616;BME280;51027;42.162;24.754;2022-11-03T09:51:01;100205.34;;;24.74;30.72
64616;BME280;51027;42.162;24.754;2022-11-03T09:53:27;100203.53;;;24.34;31.43
64616;BME280;51027;42.162;24.754;2022-11-03T09:55:54;100213.59;;;24.11;31.56
64616;BME280;51027;42.162;24.754;2022-11-03T09:58:19;100206.28;;;24.23;31.68
64616;BME280;51027;42.162;24.754;2022-11-03T10:00:44;100205.06;;;23.85;31.77
64616;BME280;51027;42.162;24.754;2022-11-03T10:03:11;100199.63;;;23.97;31.93
64616;BME280;51027;42.162;24.754;2022-11-03T10:05:37;100199.28;;;23.90;31.63
64616;BME280;51027;42.162;24.754;2022-11-03T10:08:10;100193.53;;;23.95;32.10
64616;BME280;51027;42.162;24.754;2022-11-03T10:10:41;100194.34;;;24.16;31.84
64616;BME280;51027;42.162;24.754;2022-11-03T10:13:06;100190.78;;;23.85;32.36
64616;BME280;51027;42.162;24.754;2022-11-03T10:15:33;100185.44;;;24.25;31.93
64616;BME280;51027;42.162;24.754;2022-11-03T10:17:59;100183.47;;;24.27;31.70
64616;BME280;51027;42.162;24.754;2022-11-03T10:20:27;100168.34;;;25.63;29.70
64616;BME280;51027;42.162;24.754;2022-11-03T10:22:53;100175.72;;;27.97;27.49
64616;BME280;51027;42.162;24.754;2022-11-03T10:25:35;100158.28;;;25.75;28.91
64616;BME280;51027;42.162;24.754;2022-11-03T10:28:23;100166.16;;;24.60;30.97
64616;BME280;51027;42.162;24.754;2022-11-03T10:30:57;100165.00;;;24.13;32.01
64616;BME280;51027;42.162;24.754;2022-11-03T10:33:33;100162.88;;;24.17;31.89
64616;BME280;51027;42.162;24.754;2022-11-03T10:36:03;100154.34;;;24.02;32.23
64616;BME280;51027;42.162;24.754;2022-11-03T10:38:31;100151.59;;;24.23;32.40
64616;BME280;51027;42.162;24.754;2022-11-03T10:41:26;100146.72;;;24.17;32.37
64616;BME280;51027;42.162;24.754;2022-11-03T10:46:37;100142.06;;;24.59;31.86
64616;BME280;51027;42.162;24.754;2022-11-03T10:49:14;100138.94;;;24.54;32.41
64616;BME280;51027;42.162;24.754;2022-11-03T10:51:45;100128.38;;;24.31;32.05
64616;BME280;51027;42.162;24.754;2022-11-03T10:54:13;100123.88;;;24.41;31.94
64616;BME280;51027;42.162;24.754;2022-11-03T10:56:41;100126.28;;;24.35;31.54
64616;BME280;51027;42.162;24.754;2022-11-03T10:59:13;100123.00;;;24.31;31.85
64616;BME280;51027;42.162;24.754;2022-11-03T11:01:40;100122.47;;;24.07;32.13
64616;BME280;51027;42.162;24.754;2022-11-03T11:04:05;100097.94;;;24.00;32.17
64616;BME280;51027;42.162;24.754;2022-11-03T11:06:32;100109.47;;;24.12;32.40
64616;BME280;51027;42.162;24.754;2022-11-03T11:09:03;100106.69;;;24.23;32.01
64616;BME280;51027;42.162;24.754;2022-11-03T11:11:29;100095.06;;;24.23;31.91
64616;BME280;51027;42.162;24.754;2022-11-03T11:16:59;100087.31;;;23.99;32.77
64616;BME280;51027;42.162;24.754;2022-11-03T11:19:26;100078.16;;;23.80;32.82
64616;BME280;51027;42.162;24.754;2022-11-03T11:29:57;100075.66;;;23.89;33.86
64616;BME280;51027;42.162;24.754;2022-11-03T11:37:47;100056.78;;;23.79;32.89
64616;BME280;51027;42.162;24.754;2022-11-03T11:48:31;100048.63;;;23.90;32.95
64616;BME280;51027;42.162;24.754;2022-11-03T11:50:57;100044.00;;;24.02;32.71
64616;BME280;51027;42.162;24.754;2022-11-03T11:53:24;100037.81;;;23.71;32.98
64616;BME280;51027;42.162;24.754;2022-11-03T11:55:54;100033.94;;;23.64;32.93
64616;BME280;51027;42.162;24.754;2022-11-03T11:58:36;100037.81;;;23.71;33.15
64616;BME280;51027;42.162;24.754;2022-11-03T12:03:49;100028.72;;;24.12;33.12
64616;BME280;51027;42.162;24.754;2022-11-03T12:06:15;100024.31;;;24.21;32.59
64616;BME280;51027;42.162;24.754;2022-11-03T12:08:42;100019.41;;;24.26;32.43
64616;BME280;51027;42.162;24.754;2022-11-03T12:11:10;100026.94;;;24.61;31.94
64616;BME280;51027;42.162;24.754;2022-11-03T12:13:43;100015.91;;;24.74;32.22
64616;BME280;51027;42.162;24.754;2022-11-03T12:18:56;100016.00;;;24.91;31.08
64616;BME280;51027;42.162;24.754;2022-11-03T12:21:48;100001.00;;;26.99;28.30
64616;BME280;51027;42.162;24.754;2022-11-03T12:24:35;100008.97;;;28.37;26.75
64616;BME280;51027;42.162;24.754;2022-11-03T12:27:02;100011.13;;;27.75;27.00
64616;BME280;51027;42.162;24.754;2022-11-03T12:29:28;100008.34;;;25.25;31.08
64616;BME280;51027;42.162;24.754;2022-11-03T12:31:54;100003.53;;;25.56;30.22
64616;BME280;51027;42.162;24.754;2022-11-03T12:34:19;99994.44;;;25.01;31.37
64616;BME280;51027;42.162;24.754;2022-11-03T12:36:45;99985.38;;;24.15;32.28
64616;BME280;51027;42.162;24.754;2022-11-03T12:39:11;99987.38;;;24.13;33.78
64616;BME280;51027;42.162;24.754;2022-11-03T12:41:38;99994.81;;;24.00;32.85
64616;BME280;51027;42.162;24.754;2022-11-03T12:44:04;99982.25;;;24.10;32.76
64616;BME280;51027;42.162;24.754;2022-11-03T12:46:29;99991.59;;;24.06;33.27
64616;BME280;51027;42.162;24.754;2022-11-03T12:48:55;99985.28;;;24.55;33.44
64616;BME280;51027;42.162;24.754;2022-11-03T12:51:23;99995.75;;;25.07;31.98
64616;BME280;51027;42.162;24.754;2022-11-03T12:53:49;99994.56;;;25.19;31.05
64616;BME280;51027;42.162;24.754;2022-11-03T12:56:16;99984.69;;;24.13;32.82
64616;BME280;51027;42.162;24.754;2022-11-03T12:58:41;99984.66;;;24.03;33.17
64616;BME280;51027;42.162;24.754;2022-11-03T13:01:07;99981.78;;;23.85;32.85
64616;BME280;51027;42.162;24.754;2022-11-03T13:03:33;99989.97;;;24.53;32.50
64616;BME280;51027;42.162;24.754;2022-11-03T13:06:01;99975.22;;;25.98;30.44
64616;BME280;51027;42.162;24.754;2022-11-03T13:08:31;99976.88;;;24.87;31.27
64616;BME280;51027;42.162;24.754;2022-11-03T13:10:56;99954.25;;;24.41;32.17
64616;BME280;51027;42.162;24.754;2022-11-03T13:13:22;99974.94;;;24.31;33.36
64616;BME280;51027;42.162;24.754;2022-11-03T13:15:47;99970.50;;;24.21;33.03
64616;BME280;51027;42.162;24.754;2022-11-03T13:18:13;99969.63;;;24.01;32.63
64616;BME280;51027;42.162;24.754;2022-11-03T13:20:38;99977.41;;;23.84;33.06
64616;BME280;51027;42.162;24.754;2022-11-03T13:23:04;99978.53;;;23.21;33.96
64616;BME280;51027;42.162;24.754;2022-11-03T13:25:30;99979.56;;;22.99;33.78
64616;BME280;51027;42.162;24.754;2022-11-03T13:27:56;99973.13;;;22.90;34.68
64616;BME280;51027;42.162;24.754;2022-11-03T13:30:23;99976.94;;;22.77;34.34
64616;BME280;51027;42.162;24.754;2022-11-03T13:32:49;99976.56;;;22.81;34.35
64616;BME280;51027;42.162;24.754;2022-11-03T13:35:15;99977.50;;;23.12;34.11
64616;BME280;51027;42.162;24.754;2022-11-03T13:37:41;99983.66;;;23.03;34.17
64616;BME280;51027;42.162;24.754;2022-11-03T13:40:07;99985.00;;;23.18;34.26
64616;BME280;51027;42.162;24.754;2022-11-03T13:42:36;99978.16;;;23.05;35.67
64616;BME280;51027;42.162;24.754;2022-11-03T13:45:02;99983.06;;;23.20;33.78
64616;BME280;51027;42.162;24.754;2022-11-03T13:47:27;99983.59;;;23.14;34.52
64616;BME280;51027;42.162;24.754;2022-11-03T13:49:53;99986.13;;;23.16;34.16
64616;BME280;51027;42.162;24.754;2022-11-03T13:52:18;99981.94;;;22.81;34.76
64616;BME280;51027;42.162;24.754;2022-11-03T13:54:44;99983.22;;;22.66;34.05